Time;durP1;ratioP1;P1;durP2;ratioP2;P2;SDS_P1;SDS_P2;PMS_P1;PMS_P2;Temp;Humidity;BMP_temperature;BMP_pressure;BME280_temperature;BME280_humidity;BME280_pressure;Samples;Min_cycle;Max_cycle;Signal;HPM_P1;HPM_P2
2021/11/25 00:02:13;;;;;;;;;;;4.90;99.90;;;;;;5031549;28;19925;-82
2021/11/25 00:04:40;;;;;;;;;;;4.80;99.90;;;;;;5045955;28;20019;-82
2021/11/25 00:07:08;;;;;;;;;;;4.80;99.90;;;;;;5039447;28;20432;-83
2021/11/25 00:09:34;;;;;;;;;;;4.70;99.90;;;;;;5033075;28;20020;-78
2021/11/25 00:12:01;;;;;;;;;;;4.70;99.90;;;;;;5041617;28;19972;-79
2021/11/25 00:14:28;;;;;;;;;;;4.70;99.90;;;;;;5047802;28;19933;-79
2021/11/25 00:16:54;;;;;;;;;;;4.80;99.90;;;;;;5045442;28;19983;-78
2021/11/25 00:19:21;;;;;;;;;;;4.90;99.90;;;;;;5048595;28;19925;-79
2021/11/25 00:21:48;;;;;;;;;;;4.90;99.90;;;;;;5047903;28;19925;-79
2021/11/25 00:24:16;;;;;;;;;;;4.90;99.90;;;;;;5044135;28;19993;-79
2021/11/25 00:26:43;;;;;;;;;;;4.90;99.90;;;;;;5044804;28;19977;-79
2021/11/25 00:29:10;;;;;;;;;;;4.90;99.90;;;;;;5025314;28;19992;-80
2021/11/25 00:31:36;;;;;;;;;;;4.80;99.90;;;;;;5042562;28;19971;-80
2021/11/25 00:34:03;;;;;;;;;;;4.80;99.90;;;;;;5043329;28;19964;-82
2021/11/25 00:36:30;;;;;;;;;;;4.80;99.90;;;;;;5037508;28;20016;-79
2021/11/25 00:38:56;;;;;;;;;;;4.80;99.90;;;;;;5032290;28;20040;-80
2021/11/25 00:41:24;;;;;;;;;;;4.90;99.90;;;;;;5029039;28;19992;-80
2021/11/25 00:43:51;;;;;;;;;;;4.90;99.90;;;;;;5030831;28;20548;-79
2021/11/25 00:46:18;;;;;;;;;;;4.90;99.90;;;;;;5027827;28;20016;-79
2021/11/25 00:48:45;;;;;;;;;;;4.90;99.90;;;;;;5025510;28;20380;-79
2021/11/25 00:51:12;;;;;;;;;;;4.90;99.90;;;;;;5027851;28;19972;-79
2021/11/25 00:53:38;;;;;;;;;;;4.90;99.90;;;;;;5025921;28;19933;-79
2021/11/25 00:56:05;;;;;;;;;;;4.80;99.90;;;;;;5028226;28;19939;-79
2021/11/25 00:58:33;;;;;;;;;;;4.80;99.90;;;;;;5030598;28;20356;-79
2021/11/25 01:01:00;;;;;;;;;;;4.80;99.90;;;;;;5031215;28;19925;-79
2021/11/25 01:03:27;;;;;;;;;;;4.80;99.90;;;;;;5030767;28;20356;-80
2021/11/25 01:05:53;;;;;;;;;;;4.80;99.90;;;;;;5027953;28;19933;-79
2021/11/25 01:08:20;;;;;;;;;;;4.80;99.90;;;;;;5028920;28;19933;-79
2021/11/25 01:10:47;;;;;;;;;;;4.80;99.90;;;;;;5027847;28;19935;-80
2021/11/25 01:13:14;;;;;;;;;;;4.90;99.90;;;;;;5029343;28;21846;-83
2021/11/25 01:15:42;;;;;;;;;;;4.90;99.90;;;;;;5031493;28;19969;-81
2021/11/25 01:18:09;;;;;;;;;;;4.90;99.90;;;;;;5031485;28;20015;-81
2021/11/25 01:20:37;;;;;;;;;;;4.90;99.90;;;;;;5036831;28;20020;-80
2021/11/25 01:23:04;;;;;;;;;;;4.80;99.90;;;;;;5027154;28;19931;-79
2021/11/25 01:25:31;;;;;;;;;;;4.80;99.90;;;;;;5025335;28;19925;-79
2021/11/25 01:27:58;;;;;;;;;;;4.80;99.90;;;;;;5027337;28;19933;-79
2021/11/25 01:30:25;;;;;;;;;;;4.80;99.90;;;;;;5027957;28;19925;-79
2021/11/25 01:32:53;;;;;;;;;;;4.80;99.90;;;;;;5026655;28;20375;-79
2021/11/25 01:35:20;;;;;;;;;;;4.80;99.90;;;;;;5023455;28;19932;-78
2021/11/25 01:37:48;;;;;;;;;;;4.80;99.90;;;;;;5027768;28;20401;-79
2021/11/25 01:40:15;;;;;;;;;;;4.80;99.90;;;;;;5027670;28;20304;-79
2021/11/25 01:42:42;;;;;;;;;;;4.80;99.90;;;;;;5028940;28;19935;-80
2021/11/25 01:45:10;;;;;;;;;;;4.90;99.90;;;;;;5030301;28;20024;-80
2021/11/25 01:47:36;;;;;;;;;;;4.90;99.90;;;;;;5029292;28;20307;-78
2021/11/25 01:50:05;;;;;;;;;;;4.90;99.90;;;;;;5026766;28;19931;-78
2021/11/25 01:52:34;;;;;;;;;;;4.90;99.90;;;;;;5025450;28;19925;-80
2021/11/25 01:55:00;;;;;;;;;;;4.90;99.90;;;;;;5026597;28;19956;-81
2021/11/25 01:57:27;;;;;;;;;;;4.90;99.90;;;;;;5026056;28;20027;-80
2021/11/25 01:59:54;;;;;;;;;;;4.90;99.90;;;;;;5029224;28;19925;-80
2021/11/25 02:02:20;;;;;;;;;;;4.90;99.90;;;;;;5029867;28;20502;-80
2021/11/25 02:04:47;;;;;;;;;;;4.90;99.90;;;;;;5031431;28;21625;-81
2021/11/25 02:07:17;;;;;;;;;;;4.90;99.90;;;;;;5029997;28;19964;-80
2021/11/25 02:09:44;;;;;;;;;;;4.90;99.90;;;;;;5029603;28;19933;-80
2021/11/25 02:12:11;;;;;;;;;;;4.80;99.90;;;;;;5029480;28;20008;-81
2021/11/25 02:14:38;;;;;;;;;;;4.80;99.90;;;;;;5041005;28;19929;-80
2021/11/25 02:17:05;;;;;;;;;;;4.80;99.90;;;;;;5033531;28;20045;-80
2021/11/25 02:19:32;;;;;;;;;;;4.80;99.90;;;;;;5031907;28;19933;-80
2021/11/25 02:22:00;;;;;;;;;;;4.70;99.90;;;;;;5028281;28;19925;-80
2021/11/25 02:24:29;;;;;;;;;;;4.70;99.90;;;;;;5037026;28;19932;-81
2021/11/25 02:26:56;;;;;;;;;;;4.70;99.90;;;;;;5033815;28;19963;-80
2021/11/25 02:29:23;;;;;;;;;;;4.80;99.90;;;;;;5034737;28;19925;-80
2021/11/25 02:31:51;;;;;;;;;;;4.80;99.90;;;;;;5032500;28;19931;-81
2021/11/25 02:34:21;;;;;;;;;;;4.80;99.90;;;;;;5035266;28;19933;-81
2021/11/25 02:36:48;;;;;;;;;;;4.80;99.90;;;;;;5031248;28;20035;-80
2021/11/25 02:39:22;;;;;;;;;;;4.80;99.90;;;;;;5036203;28;20077;-82
2021/11/25 02:41:48;;;;;;;;;;;4.80;99.90;;;;;;5035204;28;19952;-80
2021/11/25 02:44:15;;;;;;;;;;;4.80;99.90;;;;;;5037859;28;19947;-80
2021/11/25 02:46:42;;;;;;;;;;;4.70;99.90;;;;;;5025900;28;19936;-80
2021/11/25 02:49:08;;;;;;;;;;;4.70;99.90;;;;;;5028129;28;19925;-80
2021/11/25 02:51:36;;;;;;;;;;;4.70;99.90;;;;;;5025884;28;19971;-80
2021/11/25 02:54:03;;;;;;;;;;;4.70;99.90;;;;;;5026323;28;19937;-78
2021/11/25 02:56:31;;;;;;;;;;;4.70;99.90;;;;;;5025375;28;19929;-80
2021/11/25 02:58:59;;;;;;;;;;;4.70;99.90;;;;;;5024796;28;20019;-78
2021/11/25 03:01:27;;;;;;;;;;;4.70;99.90;;;;;;5028885;28;19925;-78
2021/11/25 03:03:54;;;;;;;;;;;4.70;99.90;;;;;;5027468;28;20023;-79
2021/11/25 03:06:21;;;;;;;;;;;4.70;99.90;;;;;;5026633;28;19933;-79
2021/11/25 03:08:48;;;;;;;;;;;4.70;99.90;;;;;;5026498;28;19933;-80
2021/11/25 03:11:16;;;;;;;;;;;4.70;99.90;;;;;;5024543;28;19929;-79
2021/11/25 03:13:45;;;;;;;;;;;4.70;99.90;;;;;;5026059;28;19925;-79
2021/11/25 03:16:14;;;;;;;;;;;4.70;99.90;;;;;;5024629;28;20395;-79
2021/11/25 03:18:41;;;;;;;;;;;4.70;99.90;;;;;;5024098;28;20317;-80
2021/11/25 03:21:08;;;;;;;;;;;4.70;99.90;;;;;;5031221;28;20077;-79
2021/11/25 03:23:37;;;;;;;;;;;4.80;99.90;;;;;;5034329;28;19925;-80
2021/11/25 03:26:04;;;;;;;;;;;4.80;99.90;;;;;;5030844;28;19925;-79
2021/11/25 03:28:31;;;;;;;;;;;4.80;99.90;;;;;;5027870;28;20012;-79
2021/11/25 03:30:59;;;;;;;;;;;4.80;99.90;;;;;;5028166;28;20031;-79
2021/11/25 03:33:28;;;;;;;;;;;4.80;99.90;;;;;;5036148;28;20490;-81
2021/11/25 03:35:55;;;;;;;;;;;4.80;99.90;;;;;;5037877;28;19980;-79
2021/11/25 03:38:22;;;;;;;;;;;4.80;99.90;;;;;;5024488;28;19929;-80
2021/11/25 03:40:49;;;;;;;;;;;4.70;99.90;;;;;;5031421;28;20021;-81
2021/11/25 03:43:16;;;;;;;;;;;4.70;99.90;;;;;;5025386;28;20287;-79
2021/11/25 03:45:43;;;;;;;;;;;4.70;99.90;;;;;;5023361;28;19967;-79
2021/11/25 03:48:11;;;;;;;;;;;4.70;99.90;;;;;;5024117;28;20380;-79
2021/11/25 03:50:38;;;;;;;;;;;4.70;99.90;;;;;;5030459;28;19929;-80
2021/11/25 03:53:05;;;;;;;;;;;4.60;99.90;;;;;;5028707;28;19931;-79
2021/11/25 03:55:32;;;;;;;;;;;4.70;99.90;;;;;;5029654;28;20032;-80
2021/11/25 03:57:58;;;;;;;;;;;4.70;99.90;;;;;;5024563;28;20295;-79
2021/11/25 04:00:27;;;;;;;;;;;4.70;99.90;;;;;;5027469;28;19926;-80
2021/11/25 04:02:54;;;;;;;;;;;4.70;99.90;;;;;;5029336;28;20352;-80
2021/11/25 04:05:22;;;;;;;;;;;4.70;99.90;;;;;;5031415;28;20024;-80
2021/11/25 04:07:49;;;;;;;;;;;4.70;99.90;;;;;;5031378;28;19933;-79
2021/11/25 04:10:16;;;;;;;;;;;4.70;99.90;;;;;;5030803;28;20295;-79
2021/11/25 04:12:43;;;;;;;;;;;4.60;99.90;;;;;;5028276;28;19929;-79
2021/11/25 04:15:11;;;;;;;;;;;4.60;99.90;;;;;;5027960;28;20380;-78
2021/11/25 04:17:37;;;;;;;;;;;4.50;99.90;;;;;;5030107;28;20016;-79
2021/11/25 04:20:04;;;;;;;;;;;4.60;99.90;;;;;;5037341;28;19925;-80
2021/11/25 04:22:32;;;;;;;;;;;4.50;99.90;;;;;;5030962;28;19925;-80
2021/11/25 04:24:59;;;;;;;;;;;4.60;99.90;;;;;;5036167;28;20338;-81
2021/11/25 04:27:26;;;;;;;;;;;4.50;99.90;;;;;;5041537;28;20016;-81
2021/11/25 04:30:00;;;;;;;;;;;4.60;99.90;;;;;;5040406;28;19996;-81
2021/11/25 04:35:30;;;;;;;;;;;4.60;99.90;;;;;;5037082;28;19943;-81
2021/11/25 04:37:58;;;;;;;;;;;4.60;99.90;;;;;;5034840;28;19932;-80
2021/11/25 04:40:25;;;;;;;;;;;4.60;99.90;;;;;;5035985;28;19925;-81
2021/11/25 04:42:52;;;;;;;;;;;4.60;99.90;;;;;;5035969;28;19931;-79
2021/11/25 04:45:18;;;;;;;;;;;4.60;99.90;;;;;;5034986;28;20000;-80
2021/11/25 04:47:45;;;;;;;;;;;4.70;99.90;;;;;;5035530;28;19925;-80
2021/11/25 04:50:11;;;;;;;;;;;4.60;99.90;;;;;;5034377;28;19967;-80
2021/11/25 04:52:38;;;;;;;;;;;4.60;99.90;;;;;;5033767;28;20402;-80
2021/11/25 04:55:06;;;;;;;;;;;4.60;99.90;;;;;;5032320;28;19925;-80
2021/11/25 04:57:33;;;;;;;;;;;4.70;99.90;;;;;;5034997;28;20013;-80
2021/11/25 05:00:00;;;;;;;;;;;4.70;99.90;;;;;;5035766;28;19925;-80
2021/11/25 05:02:26;;;;;;;;;;;4.70;99.90;;;;;;5032447;28;20012;-79
2021/11/25 05:04:53;;;;;;;;;;;4.80;99.90;;;;;;5032244;28;19944;-82
2021/11/25 05:07:20;;;;;;;;;;;4.80;99.90;;;;;;5031689;28;19925;-80
2021/11/25 05:09:46;;;;;;;;;;;4.80;99.90;;;;;;5032567;28;19937;-80
2021/11/25 05:12:15;;;;;;;;;;;4.80;99.90;;;;;;5027165;28;19931;-81
2021/11/25 05:14:41;;;;;;;;;;;4.90;99.90;;;;;;5027715;28;20280;-79
2021/11/25 05:17:08;;;;;;;;;;;4.90;99.90;;;;;;5026387;28;19925;-79
2021/11/25 05:19:35;;;;;;;;;;;4.90;99.90;;;;;;5029001;28;19925;-78
2021/11/25 05:22:01;;;;;;;;;;;4.90;99.90;;;;;;5024633;28;20581;-78
2021/11/25 05:24:28;;;;;;;;;;;4.90;99.90;;;;;;5026031;28;19944;-78
2021/11/25 05:26:55;;;;;;;;;;;4.90;99.90;;;;;;5026435;28;19972;-78
2021/11/25 05:29:23;;;;;;;;;;;5.00;99.90;;;;;;5028323;28;19925;-78
2021/11/25 05:31:50;;;;;;;;;;;5.00;99.90;;;;;;5024822;28;20049;-78
2021/11/25 05:34:17;;;;;;;;;;;5.00;99.90;;;;;;5023640;28;19969;-79
2021/11/25 05:36:44;;;;;;;;;;;5.00;99.90;;;;;;5022797;28;19925;-79
2021/11/25 05:39:11;;;;;;;;;;;5.00;99.90;;;;;;5023855;28;20371;-78
2021/11/25 05:41:38;;;;;;;;;;;5.00;99.90;;;;;;5024611;28;19952;-78
2021/11/25 05:44:05;;;;;;;;;;;5.00;99.90;;;;;;5026368;28;19925;-78
2021/11/25 05:46:33;;;;;;;;;;;5.00;99.90;;;;;;5023628;28;19969;-78
2021/11/25 05:49:00;;;;;;;;;;;5.10;99.90;;;;;;5025067;28;20273;-77
2021/11/25 05:51:27;;;;;;;;;;;5.10;99.90;;;;;;5026179;28;19933;-78
2021/11/25 05:53:54;;;;;;;;;;;5.10;99.90;;;;;;5025851;28;20334;-78
2021/11/25 05:56:20;;;;;;;;;;;5.10;99.90;;;;;;5025841;28;19976;-77
2021/11/25 05:58:54;;;;;;;;;;;5.10;99.90;;;;;;5027310;28;19929;-79
2021/11/25 06:01:22;;;;;;;;;;;5.20;99.90;;;;;;5024586;28;19925;-79
2021/11/25 06:03:50;;;;;;;;;;;5.20;99.90;;;;;;5030342;28;19936;-78
2021/11/25 06:06:17;;;;;;;;;;;5.20;99.90;;;;;;5027765;28;19960;-78
2021/11/25 06:08:44;;;;;;;;;;;5.20;99.90;;;;;;5030990;28;19925;-78
2021/11/25 06:11:11;;;;;;;;;;;5.20;99.90;;;;;;5025846;28;20364;-78
2021/11/25 06:13:38;;;;;;;;;;;5.20;99.90;;;;;;5026982;28;21825;-78
2021/11/25 06:16:05;;;;;;;;;;;5.20;99.90;;;;;;5024702;28;19929;-78
2021/11/25 06:18:32;;;;;;;;;;;5.20;99.90;;;;;;5025538;28;19933;-78
2021/11/25 06:21:00;;;;;;;;;;;5.20;99.90;;;;;;5026095;28;20044;-78
2021/11/25 06:23:27;;;;;;;;;;;5.20;99.90;;;;;;5024935;28;19936;-80
2021/11/25 06:25:53;;;;;;;;;;;5.20;99.90;;;;;;5024431;28;19929;-78
2021/11/25 06:28:20;;;;;;;;;;;5.20;99.90;;;;;;5024225;28;19939;-79
2021/11/25 06:30:47;;;;;;;;;;;5.20;99.90;;;;;;5027962;28;19931;-79
2021/11/25 06:33:13;;;;;;;;;;;5.20;99.90;;;;;;5028309;28;19929;-78
2021/11/25 06:35:41;;;;;;;;;;;5.20;99.90;;;;;;5026237;28;20024;-78
2021/11/25 06:38:09;;;;;;;;;;;5.20;99.90;;;;;;5026031;28;19929;-78
2021/11/25 06:40:36;;;;;;;;;;;5.30;99.90;;;;;;5022695;28;19926;-78
2021/11/25 06:43:04;;;;;;;;;;;5.30;99.90;;;;;;5021271;28;19983;-78
2021/11/25 06:45:31;;;;;;;;;;;5.30;99.90;;;;;;5026191;28;19933;-78
2021/11/25 06:47:57;;;;;;;;;;;5.30;99.90;;;;;;5025767;28;19932;-78
2021/11/25 06:50:25;;;;;;;;;;;5.30;99.90;;;;;;5022346;28;19930;-79
2021/11/25 06:52:51;;;;;;;;;;;5.30;99.90;;;;;;5026630;28;19931;-78
2021/11/25 06:55:19;;;;;;;;;;;5.30;99.90;;;;;;5025807;28;19925;-78
2021/11/25 06:57:49;;;;;;;;;;;5.30;99.90;;;;;;5028988;28;20462;-79
2021/11/25 07:00:17;;;;;;;;;;;5.30;99.90;;;;;;5029508;28;20012;-78
2021/11/25 07:02:44;;;;;;;;;;;5.30;99.90;;;;;;5029860;28;19925;-79
2021/11/25 07:05:10;;;;;;;;;;;5.30;99.90;;;;;;5030338;28;19944;-79
2021/11/25 07:07:38;;;;;;;;;;;5.30;99.90;;;;;;5018205;28;19925;-78
2021/11/25 07:10:09;;;;;;;;;;;5.30;99.90;;;;;;5025586;28;20008;-81
2021/11/25 07:12:39;;;;;;;;;;;5.30;99.90;;;;;;5033417;28;19933;-80
2021/11/25 07:15:06;;;;;;;;;;;5.30;99.90;;;;;;5030994;28;19994;-78
2021/11/25 07:17:33;;;;;;;;;;;5.40;99.90;;;;;;5029007;28;19932;-79
2021/11/25 07:20:01;;;;;;;;;;;5.30;99.90;;;;;;5026726;28;19928;-79
2021/11/25 07:22:29;;;;;;;;;;;5.30;99.90;;;;;;5038027;28;19984;-79
2021/11/25 07:24:55;;;;;;;;;;;5.30;99.90;;;;;;5034941;28;20011;-80
2021/11/25 07:27:22;;;;;;;;;;;5.40;99.90;;;;;;5028237;28;19925;-77
2021/11/25 07:29:51;;;;;;;;;;;5.50;99.90;;;;;;5023396;28;19972;-78
2021/11/25 07:32:18;;;;;;;;;;;5.40;99.90;;;;;;5027430;28;20946;-78
2021/11/25 07:34:45;;;;;;;;;;;5.40;99.90;;;;;;5028874;28;19932;-80
2021/11/25 07:37:11;;;;;;;;;;;5.40;99.90;;;;;;5029756;28;20024;-80
2021/11/25 07:39:38;;;;;;;;;;;5.30;99.90;;;;;;5037448;28;20732;-79
2021/11/25 07:42:05;;;;;;;;;;;5.20;99.90;;;;;;5034579;28;20454;-77
2021/11/25 07:44:32;;;;;;;;;;;5.30;99.90;;;;;;5031751;28;20406;-78
2021/11/25 07:47:00;;;;;;;;;;;5.30;99.90;;;;;;5031819;28;19925;-78
2021/11/25 07:49:26;;;;;;;;;;;5.30;99.90;;;;;;5024684;28;19929;-77
2021/11/25 07:51:59;;;;;;;;;;;5.30;99.90;;;;;;5027706;28;20020;-78
2021/11/25 07:54:25;;;;;;;;;;;5.40;99.90;;;;;;5030146;28;19988;-80
2021/11/25 07:56:52;;;;;;;;;;;5.30;99.90;;;;;;5027893;28;19932;-78
2021/11/25 07:59:19;;;;;;;;;;;5.30;99.90;;;;;;5028634;28;19925;-77
2021/11/25 08:01:45;;;;;;;;;;;5.30;99.90;;;;;;5030450;28;20364;-78
2021/11/25 08:04:13;;;;;;;;;;;5.40;99.90;;;;;;5030698;28;19931;-77
2021/11/25 08:06:40;;;;;;;;;;;5.40;99.90;;;;;;5030507;28;19935;-76
2021/11/25 08:09:11;;;;;;;;;;;5.40;99.90;;;;;;5031676;28;19925;-78
2021/11/25 08:11:38;;;;;;;;;;;5.50;99.90;;;;;;5033731;28;20012;-76
2021/11/25 08:14:05;;;;;;;;;;;5.40;99.90;;;;;;5034849;28;19944;-79
2021/11/25 08:16:33;;;;;;;;;;;5.50;99.90;;;;;;5030579;28;20032;-80
2021/11/25 08:19:00;;;;;;;;;;;5.60;99.90;;;;;;5036998;28;19948;-80
2021/11/25 08:21:28;;;;;;;;;;;5.60;99.90;;;;;;5034574;28;19925;-80
2021/11/25 08:23:57;;;;;;;;;;;5.60;99.90;;;;;;5034206;28;19969;-80
2021/11/25 08:26:24;;;;;;;;;;;5.70;99.90;;;;;;5037333;28;19964;-81
2021/11/25 08:28:51;;;;;;;;;;;5.70;99.90;;;;;;5049121;28;19969;-81
2021/11/25 08:31:17;;;;;;;;;;;5.70;99.90;;;;;;5036787;28;19949;-78
2021/11/25 08:33:44;;;;;;;;;;;5.70;99.90;;;;;;5040857;28;19992;-80
2021/11/25 08:36:11;;;;;;;;;;;5.70;99.90;;;;;;5052016;28;19964;-79
2021/11/25 08:38:39;;;;;;;;;;;5.90;99.90;;;;;;5043359;28;19933;-80
2021/11/25 08:41:07;;;;;;;;;;;5.90;99.90;;;;;;5044263;28;19984;-80
2021/11/25 08:43:34;;;;;;;;;;;5.80;99.90;;;;;;5052495;28;19958;-77
2021/11/25 08:46:00;;;;;;;;;;;5.80;99.90;;;;;;5059295;28;19925;-77
2021/11/25 08:48:27;;;;;;;;;;;5.70;99.90;;;;;;5059771;28;19937;-69
2021/11/25 08:50:54;;;;;;;;;;;5.80;99.90;;;;;;5050342;28;19968;-81
2021/11/25 08:53:23;;;;;;;;;;;5.80;99.90;;;;;;5044632;28;19929;-80
2021/11/25 08:55:51;;;;;;;;;;;5.70;99.90;;;;;;5039244;28;19909;-81
2021/11/25 08:58:17;;;;;;;;;;;5.80;99.90;;;;;;5041129;28;19941;-74
2021/11/25 09:00:44;;;;;;;;;;;5.80;99.90;;;;;;5051832;28;19948;-80
2021/11/25 09:03:11;;;;;;;;;;;5.80;99.90;;;;;;5052329;28;19989;-80
2021/11/25 09:05:38;;;;;;;;;;;5.80;99.90;;;;;;5046547;28;19972;-81
2021/11/25 09:08:05;;;;;;;;;;;5.90;99.90;;;;;;5046458;28;19992;-79
2021/11/25 09:10:33;;;;;;;;;;;5.90;99.90;;;;;;5049511;28;19944;-80
2021/11/25 09:13:02;;;;;;;;;;;6.00;99.90;;;;;;5047579;28;19925;-78
2021/11/25 09:15:29;;;;;;;;;;;6.10;99.90;;;;;;5045627;28;19933;-80
2021/11/25 09:17:56;;;;;;;;;;;6.10;99.90;;;;;;5059216;28;19964;-79
2021/11/25 09:20:23;;;;;;;;;;;6.20;99.90;;;;;;5056658;28;19909;-80
2021/11/25 09:22:50;;;;;;;;;;;6.20;99.90;;;;;;5053917;28;19968;-80
2021/11/25 09:25:16;;;;;;;;;;;6.30;99.90;;;;;;5053565;28;19940;-80
2021/11/25 09:27:45;;;;;;;;;;;6.30;99.90;;;;;;5051782;28;19931;-70
2021/11/25 09:30:15;;;;;;;;;;;6.30;99.90;;;;;;5058284;28;19940;-79
2021/11/25 09:32:41;;;;;;;;;;;6.40;99.90;;;;;;5048610;28;19936;-79
2021/11/25 09:35:08;;;;;;;;;;;6.50;99.90;;;;;;5049242;28;19979;-82
2021/11/25 09:37:35;;;;;;;;;;;6.60;99.90;;;;;;5056408;28;19956;-82
2021/11/25 09:40:02;;;;;;;;;;;6.60;99.90;;;;;;5058343;28;19972;-85
2021/11/25 09:42:29;;;;;;;;;;;6.70;99.90;;;;;;5057169;28;19995;-71
2021/11/25 09:44:56;;;;;;;;;;;6.70;99.90;;;;;;5060828;28;19916;-72
2021/11/25 09:47:24;;;;;;;;;;;6.70;99.90;;;;;;5056834;28;19957;-83
2021/11/25 09:49:50;;;;;;;;;;;6.70;99.90;;;;;;5058472;28;19909;-81
2021/11/25 09:52:17;;;;;;;;;;;6.70;99.90;;;;;;5056781;28;19926;-76
2021/11/25 09:54:44;;;;;;;;;;;6.70;99.90;;;;;;5055576;28;20027;-78
2021/11/25 09:57:10;;;;;;;;;;;6.70;99.90;;;;;;5056206;28;19932;-81
2021/11/25 09:59:37;;;;;;;;;;;6.70;99.90;;;;;;5043896;28;19972;-80
2021/11/25 10:02:04;;;;;;;;;;;6.80;99.90;;;;;;5050400;28;19929;-80
2021/11/25 10:04:32;;;;;;;;;;;6.80;99.90;;;;;;5045921;28;19980;-80
2021/11/25 10:07:00;;;;;;;;;;;6.90;99.90;;;;;;5045789;28;19969;-81
2021/11/25 10:09:31;;;;;;;;;;;7.00;99.90;;;;;;5053950;28;19916;-81
2021/11/25 10:11:57;;;;;;;;;;;7.20;99.90;;;;;;5037077;28;19926;-84
2021/11/25 10:14:35;;;;;;;;;;;7.30;99.90;;;;;;5041796;28;20375;-79
2021/11/25 10:17:01;;;;;;;;;;;7.40;99.90;;;;;;5047315;28;19925;-83
2021/11/25 10:19:29;;;;;;;;;;;7.40;99.90;;;;;;5053048;28;19925;-80
2021/11/25 10:21:58;;;;;;;;;;;7.30;99.90;;;;;;5042903;28;19925;-80
2021/11/25 10:24:31;;;;;;;;;;;7.30;99.90;;;;;;5049641;28;19965;-75
2021/11/25 10:27:12;;;;;;;;;;;7.30;99.90;;;;;;5050534;28;19925;-81
2021/11/25 10:29:39;;;;;;;;;;;7.30;99.90;;;;;;5056568;28;19950;-81
2021/11/25 10:32:06;;;;;;;;;;;7.40;99.90;;;;;;5049261;28;19925;-80
2021/11/25 10:34:39;;;;;;;;;;;7.40;99.90;;;;;;5055685;28;19944;-81
2021/11/25 10:37:17;;;;;;;;;;;7.30;99.90;;;;;;5048443;28;19909;-79
2021/11/25 10:42:32;;;;;;;;;;;7.20;99.90;;;;;;5027458;28;20008;-79
2021/11/25 10:44:59;;;;;;;;;;;7.20;99.90;;;;;;5032850;28;20149;-79
2021/11/25 10:47:28;;;;;;;;;;;7.10;99.90;;;;;;5029691;28;19933;-79
2021/11/25 10:49:55;;;;;;;;;;;7.20;99.90;;;;;;5032412;28;19926;-81
2021/11/25 10:52:26;;;;;;;;;;;7.20;99.90;;;;;;5051167;28;19965;-81
2021/11/25 10:54:55;;;;;;;;;;;7.20;99.90;;;;;;5054507;28;19931;-80
2021/11/25 10:57:23;;;;;;;;;;;7.20;99.90;;;;;;5055226;28;19968;-90
2021/11/25 10:59:51;;;;;;;;;;;7.30;99.90;;;;;;5044192;28;20065;-81
2021/11/25 11:02:23;;;;;;;;;;;7.40;99.90;;;;;;5056994;28;19925;-89
2021/11/25 11:04:51;;;;;;;;;;;7.50;99.90;;;;;;5038351;28;25379;-81
2021/11/25 11:07:21;;;;;;;;;;;7.60;99.90;;;;;;5025849;28;19925;-82
2021/11/25 11:09:49;;;;;;;;;;;7.80;99.90;;;;;;5025247;28;20020;-86
2021/11/25 11:12:16;;;;;;;;;;;8.00;99.90;;;;;;5036109;28;19988;-82
2021/11/25 11:14:43;;;;;;;;;;;8.00;99.90;;;;;;5058771;28;19909;-78
2021/11/25 11:17:22;;;;;;;;;;;8.00;99.90;;;;;;5037237;28;20284;-85
2021/11/25 11:20:09;;;;;;;;;;;8.00;99.90;;;;;;5036481;28;20307;-84
2021/11/25 11:22:36;;;;;;;;;;;8.00;99.90;;;;;;5025164;28;20009;-81
2021/11/25 11:25:05;;;;;;;;;;;8.10;99.90;;;;;;5031618;28;19972;-91
2021/11/25 11:27:32;;;;;;;;;;;8.10;99.90;;;;;;5026641;28;19929;-88
2021/11/25 11:29:59;;;;;;;;;;;8.10;99.90;;;;;;5025572;28;19933;-90
2021/11/25 11:32:25;;;;;;;;;;;8.00;99.90;;;;;;5028634;28;19943;-86
2021/11/25 11:34:53;;;;;;;;;;;7.90;99.90;;;;;;5034699;28;19964;-83
2021/11/25 11:37:19;;;;;;;;;;;7.90;99.90;;;;;;5058898;28;19928;-76
2021/11/25 11:39:47;;;;;;;;;;;7.80;99.90;;;;;;5058525;28;19909;-74
2021/11/25 11:42:15;;;;;;;;;;;7.70;99.90;;;;;;5058860;28;19916;-76
2021/11/25 11:44:44;;;;;;;;;;;7.70;99.90;;;;;;5043410;28;19935;-80
2021/11/25 11:47:12;;;;;;;;;;;7.60;99.90;;;;;;5042194;28;19948;-80
2021/11/25 11:49:42;;;;;;;;;;;7.60;99.90;;;;;;5032339;28;19925;-79
2021/11/25 11:52:10;;;;;;;;;;;7.50;99.90;;;;;;5041353;28;19910;-80
2021/11/25 11:54:41;;;;;;;;;;;7.50;99.90;;;;;;5058156;28;19932;-82
2021/11/25 12:10:26;;;;;;;;;;;7.70;99.90;;;;;;5183927;27;20307;-80
2021/11/25 12:13:03;;;;;;;;;;;8.20;99.90;;;;;;5151571;27;19932;-81
2021/11/25 12:15:30;;;;;;;;;;;8.30;99.90;;;;;;5165605;27;19915;-79
2021/11/25 12:17:56;;;;;;;;;;;8.30;99.90;;;;;;5177976;27;19941;-80
2021/11/25 12:20:25;;;;;;;;;;;8.30;99.90;;;;;;5177446;27;19938;-82
2021/11/25 12:22:53;;;;;;;;;;;8.40;99.90;;;;;;5170797;27;19927;-77
2021/11/25 12:25:31;;;;;;;;;;;8.40;99.90;;;;;;5153225;27;20316;-85
2021/11/25 12:28:12;;;;;;;;;;;8.30;99.90;;;;;;5141964;27;19923;-88
2021/11/25 12:30:41;;;;;;;;;;;8.30;99.90;;;;;;5142728;27;19927;-83
2021/11/25 12:33:08;;;;;;;;;;;8.40;99.90;;;;;;5149652;27;19930;-84
2021/11/25 12:35:39;;;;;;;;;;;8.40;99.90;;;;;;5156265;27;20019;-84
2021/11/25 12:38:07;;;;;;;;;;;8.50;99.90;;;;;;5143905;27;19959;-84
2021/11/25 12:40:49;;;;;;;;;;;8.50;99.90;;;;;;5147154;27;19930;-85
2021/11/25 12:43:17;;;;;;;;;;;8.50;99.90;;;;;;5159430;27;19932;-83
2021/11/25 12:45:45;;;;;;;;;;;8.50;99.90;;;;;;5136400;27;19928;-85
2021/11/25 12:48:12;;;;;;;;;;;8.60;99.90;;;;;;5144577;27;20044;-81
2021/11/25 12:50:40;;;;;;;;;;;8.70;99.90;;;;;;5152833;27;19931;-89
2021/11/25 12:53:07;;;;;;;;;;;8.70;99.90;;;;;;5156037;27;19998;-81
2021/11/25 12:55:34;;;;;;;;;;;8.70;99.90;;;;;;5144210;27;20793;-84
2021/11/25 12:58:02;;;;;;;;;;;8.80;99.90;;;;;;5140044;27;20010;-84
2021/11/25 13:00:30;;;;;;;;;;;8.80;99.90;;;;;;5139886;27;20027;-87
2021/11/25 13:03:06;;;;;;;;;;;8.80;99.90;;;;;;5137790;27;19935;-84
2021/11/25 13:05:33;;;;;;;;;;;8.90;99.90;;;;;;5138704;27;19930;-84
2021/11/25 13:08:02;;;;;;;;;;;8.80;99.90;;;;;;5142290;27;20478;-80
2021/11/25 13:10:30;;;;;;;;;;;8.90;99.90;;;;;;5127863;27;19988;-87
2021/11/25 13:13:08;;;;;;;;;;;8.90;99.90;;;;;;5122150;27;19928;-82
2021/11/25 13:15:35;;;;;;;;;;;8.80;99.90;;;;;;5125682;27;20446;-89
2021/11/25 13:18:02;;;;;;;;;;;8.80;99.90;;;;;;5131097;27;20376;-88
2021/11/25 13:20:42;;;;;;;;;;;8.80;99.90;;;;;;5129495;27;20006;-85
2021/11/25 13:23:09;;;;;;;;;;;8.80;99.90;;;;;;5121184;27;19976;-86
2021/11/25 13:25:46;;;;;;;;;;;8.80;99.90;;;;;;5124516;27;19938;-79
2021/11/25 13:28:20;;;;;;;;;;;8.90;99.90;;;;;;5120577;27;19923;-78
2021/11/25 13:30:47;;;;;;;;;;;8.80;99.90;;;;;;5134159;27;19927;-78
2021/11/25 13:33:13;;;;;;;;;;;8.80;99.90;;;;;;5130132;27;20102;-85
2021/11/25 13:35:40;;;;;;;;;;;8.80;99.90;;;;;;5126578;27;20435;-81
2021/11/25 13:38:07;;;;;;;;;;;8.90;99.90;;;;;;5131315;27;20368;-88
2021/11/25 13:40:37;;;;;;;;;;;8.80;99.90;;;;;;5132903;27;20351;-86
2021/11/25 13:43:04;;;;;;;;;;;8.90;99.90;;;;;;5124943;27;19928;-84
2021/11/25 13:45:32;;;;;;;;;;;8.90;99.90;;;;;;5118471;27;19971;-91
2021/11/25 13:47:59;;;;;;;;;;;8.80;99.90;;;;;;5119837;27;20023;-88
2021/11/25 13:50:28;;;;;;;;;;;8.90;99.90;;;;;;5126248;27;20422;-88
2021/11/25 13:52:57;;;;;;;;;;;8.90;99.90;;;;;;5120930;27;19923;-89
2021/11/25 13:55:25;;;;;;;;;;;8.90;99.90;;;;;;5119690;27;19930;-80
2021/11/25 13:57:51;;;;;;;;;;;8.90;99.90;;;;;;5118370;27;19924;-80
2021/11/25 14:00:19;;;;;;;;;;;8.90;99.90;;;;;;5119686;27;20010;-89
2021/11/25 14:02:47;;;;;;;;;;;8.90;99.90;;;;;;5119545;27;20066;-83
2021/11/25 14:05:17;;;;;;;;;;;8.90;99.90;;;;;;5121723;27;19938;-79
2021/11/25 14:07:44;;;;;;;;;;;8.90;99.90;;;;;;5116588;27;19967;-80
2021/11/25 14:10:13;;;;;;;;;;;8.90;99.90;;;;;;5116766;27;19999;-85
2021/11/25 14:12:40;;;;;;;;;;;8.90;99.90;;;;;;5126456;27;19931;-86
2021/11/25 14:15:08;;;;;;;;;;;8.90;99.90;;;;;;5122418;27;20078;-88
2021/11/25 14:17:38;;;;;;;;;;;8.90;99.90;;;;;;5125779;27;19930;-88
2021/11/25 14:20:17;;;;;;;;;;;8.90;99.90;;;;;;5128270;27;20018;-88
2021/11/25 14:22:44;;;;;;;;;;;8.80;99.90;;;;;;5123320;27;20054;-88
2021/11/25 14:25:22;;;;;;;;;;;8.80;99.90;;;;;;5121834;27;19973;-80
2021/11/25 14:30:32;;;;;;;;;;;8.90;99.90;;;;;;5118476;27;19939;-84
2021/11/25 14:33:00;;;;;;;;;;;8.80;99.90;;;;;;5120542;27;19923;-79
2021/11/25 14:35:38;;;;;;;;;;;8.70;99.90;;;;;;5117411;27;19932;-76
2021/11/25 14:38:06;;;;;;;;;;;8.70;99.90;;;;;;5124325;27;19923;-85
2021/11/25 14:40:34;;;;;;;;;;;8.60;99.90;;;;;;5120901;27;19932;-79
2021/11/25 14:43:01;;;;;;;;;;;8.60;99.90;;;;;;5129449;27;19937;-81
2021/11/25 14:45:28;;;;;;;;;;;8.60;99.90;;;;;;5128607;27;20398;-87
2021/11/25 14:47:55;;;;;;;;;;;8.50;99.90;;;;;;5123399;27;19930;-78
2021/11/25 14:50:29;;;;;;;;;;;8.50;99.90;;;;;;5122514;27;19923;-83
2021/11/25 14:53:07;;;;;;;;;;;8.50;99.90;;;;;;5120653;27;19966;-77
2021/11/25 14:55:36;;;;;;;;;;;8.50;99.90;;;;;;5121508;27;20027;-77
2021/11/25 14:58:03;;;;;;;;;;;8.50;99.90;;;;;;5123052;27;19945;-80